Time;durP1;ratioP1;P1;durP2;ratioP2;P2;SDS_P1;SDS_P2;PMS_P1;PMS_P2;Temp;Humidity;BMP_temperature;BMP_pressure;BME280_temperature;BME280_humidity;BME280_pressure;Samples;Min_cycle;Max_cycle;Signal;HPM_P1;HPM_P2
2022/04/28 00:01:02;;;;;;;9.85;2.63;;;;;;;16.44;63.27;94827.25;5015477;28;20222;-89
2022/04/28 00:03:28;;;;;;;5.88;2.08;;;;;;;16.20;63.87;94785.00;5033196;28;20666;-89
2022/04/28 00:05:54;;;;;;;2.50;1.90;;;;;;;16.07;63.83;94772.09;5033028;28;20267;-90
2022/04/28 00:08:19;;;;;;;3.33;2.28;;;;;;;15.99;64.26;94777.84;5015023;28;20180;-89
2022/04/28 00:10:45;;;;;;;4.38;2.35;;;;;;;15.81;65.14;94775.47;5033338;28;20202;-89
2022/04/28 00:13:14;;;;;;;11.00;2.63;;;;;;;15.78;65.50;94771.44;5015152;28;20199;-89
2022/04/28 00:15:40;;;;;;;6.45;2.13;;;;;;;16.21;65.04;94828.31;5015207;28;20195;-88
2022/04/28 00:18:06;;;;;;;6.50;2.63;;;;;;;15.92;65.42;94765.78;5014863;28;20180;-87
2022/04/28 00:20:32;;;;;;;7.18;2.92;;;;;;;15.55;66.96;94762.91;5032859;28;20218;-87
2022/04/28 00:22:57;;;;;;;4.68;3.10;;;;;;;15.73;68.23;94835.09;5014833;28;20164;-86
2022/04/28 00:25:23;;;;;;;8.43;3.00;;;;;;;15.63;69.29;94840.25;5032987;28;20611;-87
2022/04/28 00:27:49;;;;;;;6.28;2.78;;;;;;;15.63;69.04;94839.44;5033144;28;20166;-87
2022/04/28 00:30:15;;;;;;;4.53;2.78;;;;;;;15.65;69.57;94840.00;5032896;28;20294;-87
2022/04/28 00:32:41;;;;;;;5.55;2.75;;;;;;;15.42;69.50;94803.78;5030879;28;20670;-88
2022/04/28 00:35:07;;;;;;;6.05;3.15;;;;;;;15.59;68.77;94825.03;5005534;28;20192;-87
2022/04/28 00:37:33;;;;;;;13.68;3.35;;;;;;;15.34;69.06;94786.44;5005254;28;20267;-87
2022/04/28 00:39:59;;;;;;;6.60;3.20;;;;;;;15.71;68.98;94844.34;5019599;28;20271;-87
2022/04/28 00:42:24;;;;;;;6.70;2.92;;;;;;;15.73;68.74;94848.38;5012778;28;20164;-87
2022/04/28 00:44:50;;;;;;;7.45;3.60;;;;;;;15.31;69.21;94781.59;5012505;28;20179;-87
2022/04/28 00:47:15;;;;;;;7.30;3.70;;;;;;;15.38;68.87;94800.81;5012704;28;20214;-87
2022/04/28 00:52:28;;;;;;;10.40;4.72;;;;;;;15.47;68.27;94828.56;5012651;28;20630;-86
2022/04/28 00:54:55;;;;;;;9.25;4.43;;;;;;;15.62;68.59;94862.50;5015075;28;20220;-86
2022/04/28 00:57:22;;;;;;;21.48;5.68;;;;;;;15.57;68.53;94862.41;5014623;28;20188;-86
2022/04/28 00:59:49;;;;;;;9.38;4.30;;;;;;;15.47;68.62;94852.44;5025001;28;20179;-86
2022/04/28 01:02:19;;;;;;;7.35;4.05;;;;;;;15.34;69.11;94860.69;5008487;28;20623;-86
2022/04/28 01:04:48;;;;;;;10.20;3.63;;;;;;;15.16;69.54;94829.09;5007191;28;20670;-85
2022/04/28 01:07:13;;;;;;;6.47;3.40;;;;;;;15.33;69.93;94863.59;5027567;28;20187;-85
2022/04/28 01:09:41;;;;;;;8.77;3.53;;;;;;;15.30;70.37;94864.88;5013293;28;20227;-85
2022/04/28 01:12:15;;;;;;;6.20;3.20;;;;;;;15.20;71.10;94858.59;5014121;28;20623;-86
2022/04/28 01:14:45;;;;;;;12.30;3.20;;;;;;;15.14;71.32;94848.94;5031839;28;20175;-85
2022/04/28 01:17:12;;;;;;;7.22;3.97;;;;;;;15.21;71.42;94868.16;5026649;28;20657;-85
2022/04/28 01:19:38;;;;;;;5.50;3.60;;;;;;;14.88;71.59;94829.91;5025173;28;20198;-85
2022/04/28 01:22:05;;;;;;;12.40;4.00;;;;;;;14.77;72.23;94832.66;5023529;28;20169;-85
2022/04/28 01:24:31;;;;;;;9.53;3.23;;;;;;;14.92;72.66;94867.38;5020691;28;20211;-85
2022/04/28 01:26:59;;;;;;;10.23;3.63;;;;;;;15.01;72.80;94881.84;5012402;28;20669;-85
2022/04/28 01:29:24;;;;;;;8.70;4.17;;;;;;;14.67;73.07;94835.91;4994517;28;20716;-85
2022/04/28 01:31:50;;;;;;;10.27;4.13;;;;;;;14.79;73.23;94843.81;4994529;28;20169;-85
2022/04/28 01:34:16;;;;;;;10.20;3.90;;;;;;;14.96;73.54;94879.91;5012528;28;20319;-85
2022/04/28 01:36:42;;;;;;;9.90;3.90;;;;;;;14.38;73.72;94786.56;5012116;28;20549;-85
2022/04/28 01:39:09;;;;;;;5.67;3.30;;;;;;;14.75;73.69;94837.38;5011969;28;20171;-85
2022/04/28 01:41:34;;;;;;;10.70;4.40;;;;;;;14.60;73.68;94822.00;4995333;28;20179;-86
2022/04/28 01:44:01;;;;;;;9.40;3.90;;;;;;;14.84;74.22;94849.19;5015956;28;20625;-86
2022/04/28 01:46:27;;;;;;;10.67;4.13;;;;;;;14.84;74.26;94852.66;5017839;28;20168;-87
2022/04/28 01:48:53;;;;;;;11.33;4.53;;;;;;;15.09;74.10;94884.94;4998614;28;20251;-88
2022/04/28 01:56:46;;;;;;;8.03;3.90;;;;;;;14.81;74.22;94857.63;5015941;28;20238;-87
2022/04/28 01:59:12;;;;;;;6.97;4.30;;;;;;;14.78;74.06;94848.31;5015823;28;20619;-88
2022/04/28 02:01:37;;;;;;;10.93;3.83;;;;;;;15.07;73.62;94897.63;5021083;28;20194;-86
2022/04/28 02:04:03;;;;;;;7.33;3.57;;;;;;;14.72;74.00;94842.09;5024552;28;20168;-87
2022/04/28 02:06:28;;;;;;;7.73;5.10;;;;;;;14.76;74.10;94847.75;5020751;28;20169;-87
2022/04/28 02:08:54;;;;;;;10.13;3.70;;;;;;;15.09;74.54;94895.53;5024426;28;20728;-88
2022/04/28 02:11:19;;;;;;;6.70;3.73;;;;;;;14.82;74.42;94862.69;5003185;28;20186;-87
2022/04/28 02:13:45;;;;;;;6.73;4.13;;;;;;;14.81;73.77;94863.72;5013099;28;20194;-87
2022/04/28 02:16:10;;;;;;;11.40;3.30;;;;;;;14.93;74.05;94875.09;5034869;28;20183;-86
2022/04/28 02:18:36;;;;;;;5.70;3.30;;;;;;;15.09;73.85;94895.53;5035204;28;20692;-87
2022/04/28 02:21:01;;;;;;;9.27;3.20;;;;;;;14.78;73.91;94858.09;5017010;28;20172;-87
2022/04/28 02:23:27;;;;;;;6.05;3.85;;;;;;;14.71;73.96;94842.31;5034719;28;20164;-87
2022/04/28 02:25:53;;;;;;;7.43;3.88;;;;;;;14.80;74.27;94863.94;5042252;28;20227;-87
2022/04/28 02:28:18;;;;;;;8.07;3.90;;;;;;;14.82;74.56;94872.47;5017231;28;20552;-90
2022/04/28 02:30:43;;;;;;;3.33;2.87;;;;;;;14.75;74.47;94858.56;5035079;28;20176;-89
2022/04/28 02:33:09;;;;;;;6.43;3.40;;;;;;;15.07;74.72;94908.22;5017046;28;20196;-88
2022/04/28 02:35:35;;;;;;;4.20;2.93;;;;;;;14.64;74.76;94836.38;5016917;28;20179;-88
2022/04/28 02:38:00;;;;;;;6.47;2.90;;;;;;;14.83;74.66;94866.13;5034446;28;20172;-89
2022/04/28 02:40:26;;;;;;;6.07;2.90;;;;;;;14.75;74.70;94856.72;5016675;28;20167;-89
2022/04/28 02:42:52;;;;;;;5.60;3.00;;;;;;;14.67;74.34;94839.38;5034779;28;20168;-89
2022/04/28 02:45:17;;;;;;;8.27;3.80;;;;;;;14.87;74.23;94864.63;5016778;28;20168;-89
2022/04/28 02:47:43;;;;;;;4.17;2.97;;;;;;;14.75;74.49;94861.22;5016362;28;20264;-90
2022/04/28 02:50:11;;;;;;;5.60;2.67;;;;;;;14.85;74.65;94870.16;5034411;28;20291;-89
2022/04/28 02:52:38;;;;;;;7.07;3.70;;;;;;;14.72;75.00;94849.22;5034812;28;20555;-89
2022/04/28 02:55:04;;;;;;;5.27;3.70;;;;;;;14.87;74.87;94875.25;5016438;28;20172;-89
2022/04/28 02:57:29;;;;;;;6.70;3.60;;;;;;;14.76;74.74;94855.69;5034613;28;20233;-89
2022/04/28 02:59:55;;;;;;;7.17;3.47;;;;;;;14.83;74.42;94866.13;5034359;28;20162;-86
2022/04/28 03:02:20;;;;;;;5.20;3.40;;;;;;;14.70;75.02;94849.47;5033810;28;20596;-92
2022/04/28 03:04:46;;;;;;;5.82;3.35;;;;;;;15.09;75.13;94918.59;5034445;28;20171;-86
2022/04/28 03:12:39;;;;;;;5.60;3.60;;;;;;;14.62;74.47;94844.53;5034364;28;20325;-86
2022/04/28 03:15:06;;;;;;;16.03;4.10;;;;;;;14.59;74.44;94846.88;5034049;28;20665;-86
2022/04/28 03:17:33;;;;;;;5.63;3.97;;;;;;;15.01;74.88;94927.72;5033950;28;20194;-86
2022/04/28 03:19:58;;;;;;;8.73;3.00;;;;;;;15.06;74.63;94934.97;5029684;28;20207;-83
2022/04/28 03:22:24;;;;;;;3.50;3.20;;;;;;;15.04;74.88;94945.84;5019952;28;20195;-83
2022/04/28 03:24:49;;;;;;;6.10;4.03;;;;;;;15.06;74.80;94934.97;5020542;28;20176;-83
2022/04/28 03:27:15;;;;;;;4.63;4.23;;;;;;;14.83;75.08;94906.69;5021511;28;20638;-83
2022/04/28 03:29:41;;;;;;;6.10;3.83;;;;;;;15.00;74.91;94938.56;5022256;28;20177;-84
2022/04/28 03:32:08;;;;;;;4.97;3.83;;;;;;;14.87;74.98;94929.06;5019283;28;20180;-84
2022/04/28 03:34:34;;;;;;;5.30;4.13;;;;;;;14.93;75.22;94945.84;5021255;28;20167;-84
2022/04/28 03:36:59;;;;;;;7.73;4.83;;;;;;;14.95;75.67;94965.81;5028776;28;20183;-84
2022/04/28 03:39:25;;;;;;;5.23;4.73;;;;;;;14.95;76.11;94965.00;5033900;28;20160;-83
2022/04/28 03:41:50;;;;;;;7.80;4.17;;;;;;;14.60;75.95;94928.78;5033201;28;20642;-83
2022/04/28 03:44:16;;;;;;;6.77;4.43;;;;;;;14.84;76.42;94973.78;5022915;28;20168;-84
2022/04/28 03:46:42;;;;;;;5.13;4.63;;;;;;;14.60;76.59;94936.72;5023104;28;20180;-84
2022/04/28 03:49:07;;;;;;;6.03;5.17;;;;;;;14.87;76.70;94986.56;5020045;28;20172;-86
2022/04/28 03:51:33;;;;;;;7.53;4.80;;;;;;;14.89;76.77;94974.66;5016795;28;20656;-86
2022/04/28 03:54:00;;;;;;;5.83;4.90;;;;;;;14.86;76.53;94964.56;5013250;28;20250;-86
2022/04/28 03:56:30;;;;;;;6.33;5.07;;;;;;;14.61;76.36;94922.44;5013355;28;20163;-86
2022/04/28 03:58:56;;;;;;;6.73;5.33;;;;;;;14.75;76.59;94954.78;5023229;28;20180;-86
2022/04/28 04:01:23;;;;;;;6.10;4.97;;;;;;;14.92;76.65;94976.88;5022422;28;20191;-87
2022/04/28 04:03:48;;;;;;;7.33;5.50;;;;;;;14.61;76.68;94929.59;5019538;28;20661;-87
2022/04/28 04:06:14;;;;;;;10.30;5.53;;;;;;;14.80;76.76;94980.56;5022319;28;20186;-87
2022/04/28 04:08:39;;;;;;;8.50;4.47;;;;;;;14.42;77.49;94913.03;5018334;28;20216;-86
2022/04/28 04:11:05;;;;;;;7.13;5.13;;;;;;;14.48;77.04;94916.56;5026290;28;20198;-87
2022/04/28 04:13:30;;;;;;;9.40;4.50;;;;;;;14.95;76.44;94984.34;5032118;28;20607;-85
2022/04/28 04:15:55;;;;;;;6.50;5.23;;;;;;;14.97;76.74;94989.41;5032297;28;20167;-85
2022/04/28 04:18:21;;;;;;;10.33;5.03;;;;;;;14.81;76.35;94964.44;5032669;28;20167;-85
2022/04/28 04:20:46;;;;;;;5.57;4.20;;;;;;;14.89;76.19;94964.06;5030885;28;20199;-86
2022/04/28 04:23:12;;;;;;;5.63;5.00;;;;;;;14.98;76.21;94999.78;5021084;28;20172;-87
2022/04/28 04:25:37;;;;;;;7.00;4.80;;;;;;;14.95;76.41;94996.81;5003482;28;20183;-87
2022/04/28 04:28:04;;;;;;;6.70;4.17;;;;;;;14.66;76.17;94956.97;5020277;28;20177;-86
2022/04/28 04:33:13;;;;;;;5.57;4.67;;;;;;;14.86;76.51;94998.19;5024515;28;20232;-84
2022/04/28 04:35:38;;;;;;;4.70;4.00;;;;;;;14.81;76.08;94998.88;5026466;28;20176;-84
2022/04/28 04:38:04;;;;;;;8.10;3.87;;;;;;;14.87;76.24;95008.59;5032029;28;20165;-85
2022/04/28 04:40:29;;;;;;;5.27;3.80;;;;;;;14.84;76.82;95003.72;5022990;28;20317;-84
2022/04/28 04:42:55;;;;;;;7.70;4.07;;;;;;;14.88;76.26;95010.16;5026095;28;20164;-84
2022/04/28 04:45:21;;;;;;;3.53;2.67;;;;;;;14.79;75.27;94998.31;5020872;28;20653;-86
2022/04/28 04:47:46;;;;;;;3.67;2.67;;;;;;;14.90;74.84;95012.59;5018963;28;20183;-84
2022/04/28 04:50:11;;;;;;;6.57;2.83;;;;;;;14.89;74.81;95013.63;5026471;28;20607;-84
2022/04/28 04:52:37;;;;;;;2.97;2.40;;;;;;;14.87;74.68;95013.88;5023124;28;20200;-83
2022/04/28 04:55:03;;;;;;;2.20;1.80;;;;;;;14.78;73.70;95015.28;5015018;28;20168;-83
2022/04/28 04:57:29;;;;;;;3.23;2.03;;;;;;;14.80;73.77;95025.63;5021242;28;20172;-83
2022/04/28 04:59:55;;;;;;;3.97;1.80;;;;;;;14.76;73.55;95030.59;5028794;28;20229;-84
2022/04/28 05:02:20;;;;;;;3.20;1.60;;;;;;;14.62;73.55;95015.97;5017566;28;20173;-83
2022/04/28 05:04:46;;;;;;;2.37;1.83;;;;;;;14.21;74.06;94966.53;5023892;28;20172;-83
2022/04/28 05:07:12;;;;;;;1.73;1.43;;;;;;;14.24;73.47;94963.44;5022130;28;20191;-83
2022/04/28 05:09:37;;;;;;;10.20;2.10;;;;;;;14.64;73.31;95035.91;5002328;28;20211;-83
2022/04/28 05:12:05;;;;;;;1.47;1.30;;;;;;;14.57;73.20;95029.91;5024389;28;20168;-83
2022/04/28 05:14:30;;;;;;;4.07;2.53;;;;;;;14.49;73.16;95017.00;5018828;28;20227;-83
2022/04/28 05:16:57;;;;;;;2.53;2.33;;;;;;;14.49;73.01;95046.16;5027725;28;20626;-83
2022/04/28 05:19:23;;;;;;;3.50;1.97;;;;;;;14.26;73.31;95030.22;5031808;28;20167;-83
2022/04/28 05:21:49;;;;;;;2.97;2.47;;;;;;;14.25;73.42;95031.25;5031630;28;20164;-83
2022/04/28 05:24:15;;;;;;;8.13;1.90;;;;;;;14.29;73.11;95043.00;5022464;28;20199;-83
2022/04/28 05:26:40;;;;;;;2.13;1.33;;;;;;;14.16;73.33;95032.63;5025961;28;20187;-83
2022/04/28 05:29:06;;;;;;;1.20;1.10;;;;;;;13.85;73.46;94996.66;5029614;28;20156;-84
2022/04/28 05:31:31;;;;;;;11.20;1.93;;;;;;;14.19;74.16;95054.16;5028097;28;20179;-83
2022/04/28 05:33:56;;;;;;;2.97;1.47;;;;;;;14.14;74.11;95053.22;5035537;28;20204;-83
2022/04/28 05:36:24;;;;;;;1.13;1.10;;;;;;;14.00;74.09;95055.28;5025985;28;20257;-83
2022/04/28 05:38:50;;;;;;;1.60;1.30;;;;;;;14.05;74.24;95065.19;5024230;28;20674;-83
2022/04/28 05:41:15;;;;;;;2.50;1.50;;;;;;;13.89;74.32;95040.16;5028089;28;20179;-83
2022/04/28 05:46:25;;;;;;;2.30;1.50;;;;;;;14.00;73.82;95065.88;5016121;28;20211;-84
2022/04/28 05:48:51;;;;;;;3.23;1.40;;;;;;;13.94;73.80;95059.63;5016055;28;20157;-83
2022/04/28 05:51:18;;;;;;;4.23;1.20;;;;;;;14.02;74.13;95078.84;5015981;28;20168;-83
2022/04/28 05:53:43;;;;;;;1.60;1.10;;;;;;;14.01;74.38;95085.22;5015605;28;20235;-83
2022/04/28 05:56:09;;;;;;;1.77;1.63;;;;;;;14.01;74.54;95080.69;5015812;28;20192;-83
2022/04/28 05:58:34;;;;;;;1.60;1.50;;;;;;;14.07;74.68;95084.28;5015598;28;20165;-83
2022/04/28 06:01:00;;;;;;;2.50;1.50;;;;;;;14.10;74.22;95089.13;5016243;28;20206;-83
2022/04/28 06:03:26;;;;;;;3.23;1.27;;;;;;;14.07;74.23;95092.22;5028096;28;20178;-83
2022/04/28 06:05:52;;;;;;;2.00;1.37;;;;;;;13.94;74.94;95094.03;5027903;28;20164;-83
2022/04/28 06:08:18;;;;;;;1.47;1.10;;;;;;;13.75;75.58;95073.16;5024738;28;20172;-83
2022/04/28 06:10:43;;;;;;;1.20;1.10;;;;;;;13.73;75.62;95065.44;5032925;28;20589;-84
2022/04/28 06:13:09;;;;;;;2.70;1.60;;;;;;;13.97;75.41;95096.22;5034612;28;20746;-83
2022/04/28 06:15:34;;;;;;;4.90;1.43;;;;;;;13.86;75.22;95080.31;5016975;28;20187;-83
2022/04/28 06:18:00;;;;;;;2.10;1.93;;;;;;;13.75;75.84;95068.63;5034985;28;20251;-83
2022/04/28 06:20:26;;;;;;;2.83;1.30;;;;;;;13.93;76.11;95100.34;5034718;28;20195;-84
2022/04/28 06:22:52;;;;;;;3.23;1.40;;;;;;;13.78;75.85;95075.34;5025082;28;20171;-83
2022/04/28 06:25:17;;;;;;;3.13;1.37;;;;;;;13.81;75.51;95078.34;5030360;28;20167;-83
2022/04/28 06:27:42;;;;;;;3.17;1.50;;;;;;;13.67;75.02;95052.28;5025711;28;20211;-83
2022/04/28 06:30:08;;;;;;;1.30;1.20;;;;;;;13.86;75.57;95089.06;5019761;28;20189;-83
2022/04/28 06:32:34;;;;;;;4.80;1.70;;;;;;;13.91;75.99;95099.78;5014502;28;20200;-84
2022/04/28 06:35:00;;;;;;;2.13;1.73;;;;;;;13.91;76.30;95115.66;5026418;28;20583;-83
2022/04/28 06:37:25;;;;;;;9.43;1.70;;;;;;;13.89;75.89;95111.63;5025086;28;20179;-83
2022/04/28 06:39:51;;;;;;;2.73;1.30;;;;;;;13.95;75.74;95106.22;5023609;28;20259;-82
2022/04/28 06:42:16;;;;;;;3.47;2.73;;;;;;;13.95;75.97;95121.31;5016741;28;20560;-83
2022/04/28 06:44:42;;;;;;;3.70;2.50;;;;;;;13.76;76.32;95085.31;5022328;28;20561;-83
2022/04/28 06:47:07;;;;;;;4.17;2.30;;;;;;;13.91;76.69;95117.50;5022847;28;20263;-83
2022/04/28 06:49:34;;;;;;;5.10;1.97;;;;;;;13.91;77.21;95115.66;5028919;28;20186;-83
2022/04/28 06:52:00;;;;;;;2.57;2.03;;;;;;;13.94;77.36;95120.50;5026723;28;20206;-83
2022/04/28 06:54:25;;;;;;;2.53;1.60;;;;;;;13.92;76.92;95116.47;5029633;28;20677;-83
2022/04/28 06:56:51;;;;;;;3.33;2.47;;;;;;;13.87;76.62;95108.38;5020396;28;20168;-84
2022/04/28 06:59:16;;;;;;;2.93;2.47;;;;;;;13.87;nan;95121.63;5026547;28;20187;-83
2022/04/28 07:01:43;;;;;;;3.17;2.27;;;;;;;13.80;77.30;95108.47;5023903;28;20250;-84
2022/04/28 07:04:08;;;;;;;2.27;2.07;;;;;;;13.77;77.59;95108.91;5024967;28;20168;-84
2022/04/28 07:06:34;;;;;;;5.57;3.10;;;;;;;13.86;77.73;95126.09;5021754;28;20183;-83
2022/04/28 07:08:59;;;;;;;2.93;2.63;;;;;;;13.73;77.80;95123.66;5023973;28;21006;-84
2022/04/28 07:11:25;;;;;;;4.10;2.90;;;;;;;13.81;78.39;95123.34;5023785;28;20212;-84
2022/04/28 07:13:51;;;;;;;3.97;2.47;;;;;;;13.84;78.56;95117.56;5016157;28;20193;-83
2022/04/28 07:16:16;;;;;;;6.37;2.40;;;;;;;13.96;77.67;95130.88;5030148;28;20561;-86
2022/04/28 07:18:42;;;;;;;4.70;3.17;;;;;;;13.70;77.29;95108.22;5021494;28;20267;-83
2022/04/28 07:21:07;;;;;;;3.53;2.10;;;;;;;13.87;77.34;95130.38;5025144;28;20199;-82
2022/04/28 07:23:33;;;;;;;3.43;1.80;;;;;;;13.96;77.25;95138.81;5028609;28;20176;-82
2022/04/28 07:25:58;;;;;;;5.83;3.03;;;;;;;13.99;77.31;95127.78;5000752;28;20179;-83
2022/04/28 07:28:24;;;;;;;9.93;3.27;;;;;;;14.06;76.67;95138.25;5024014;28;20176;-83
2022/04/28 07:30:49;;;;;;;2.63;2.23;;;;;;;14.04;76.38;95132.38;5024399;28;20183;-83
2022/04/28 07:33:15;;;;;;;5.27;2.10;;;;;;;14.11;76.24;95130.44;5025255;28;20191;-83
2022/04/28 07:35:40;;;;;;;3.33;1.80;;;;;;;14.15;75.24;95143.03;5023235;28;20176;-83
2022/04/28 07:38:06;;;;;;;3.43;1.97;;;;;;;14.17;76.02;95127.72;5024174;28;20250;-84
2022/04/28 07:40:32;;;;;;;2.53;1.57;;;;;;;13.99;76.19;95109.25;5033190;28;20661;-83
2022/04/28 07:42:58;;;;;;;2.10;1.60;;;;;;;14.22;76.26;95142.91;5033844;28;20170;-82
2022/04/28 07:45:24;;;;;;;1.87;1.53;;;;;;;14.23;76.17;95136.59;5031491;28;20239;-82
2022/04/28 07:47:50;;;;;;;2.77;1.87;;;;;;;14.28;75.82;95131.41;5015074;28;20192;-81
2022/04/28 07:50:16;;;;;;;3.40;2.00;;;;;;;14.31;75.14;95128.31;5021416;28;20176;-82
2022/04/28 07:52:43;;;;;;;2.17;1.60;;;;;;;14.32;75.22;95119.34;5025638;28;20279;-81
2022/04/28 07:55:10;;;;;;;1.63;1.10;;;;;;;14.40;74.62;95115.59;5019145;28;20170;-82
2022/04/28 07:57:37;;;;;;;9.53;1.57;;;;;;;14.52;74.63;95138.44;5021254;28;20235;-83
2022/04/28 08:00:07;;;;;;;1.40;1.30;;;;;;;14.56;74.40;95150.16;5020089;28;20164;-83
2022/04/28 08:02:33;;;;;;;5.27;2.07;;;;;;;14.58;74.15;95142.81;5022031;28;20251;-82
2022/04/28 08:04:59;;;;;;;1.77;1.47;;;;;;;14.60;73.46;95153.19;5025108;28;20180;-82
2022/04/28 08:07:25;;;;;;;1.83;1.33;;;;;;;14.57;73.10;95150.97;5024713;28;20183;-82
2022/04/28 08:09:50;;;;;;;4.10;1.40;;;;;;;14.43;73.32;95141.63;5022752;28;20303;-81
2022/04/28 08:12:16;;;;;;;6.23;1.97;;;;;;;14.42;73.48;95156.72;5026072;28;20221;-82
2022/04/28 08:14:42;;;;;;;3.53;1.60;;;;;;;14.43;73.13;95145.09;5004784;28;20541;-82
2022/04/28 08:17:08;;;;;;;4.87;1.90;;;;;;;14.25;74.11;95135.34;5028180;28;20182;-83
2022/04/28 08:19:34;;;;;;;8.53;1.80;;;;;;;14.31;73.89;95137.06;5024251;28;20246;-82
2022/04/28 08:22:01;;;;;;;1.40;1.30;;;;;;;14.41;74.06;95154.28;5016144;28;20188;-82
2022/04/28 08:24:26;;;;;;;3.10;1.70;;;;;;;14.35;74.32;95146.19;5017987;28;20188;-83
2022/04/28 08:26:54;;;;;;;2.50;1.70;;;;;;;14.48;73.45;95147.03;5023304;28;20587;-85
2022/04/28 08:29:20;;;;;;;2.00;1.80;;;;;;;14.43;74.00;95142.44;5020571;28;20271;-87
2022/04/28 08:31:46;;;;;;;9.30;2.30;;;;;;;14.28;73.88;95112.88;5013123;28;20620;-83
2022/04/28 08:34:13;;;;;;;2.50;2.23;;;;;;;14.65;74.35;95161.25;5015022;28;20219;-85
2022/04/28 08:36:39;;;;;;;4.37;1.93;;;;;;;14.69;74.29;95165.88;5002125;28;20560;-85
2022/04/28 08:39:05;;;;;;;3.40;1.93;;;;;;;14.53;73.08;95142.66;5027409;28;20185;-84
2022/04/28 08:41:32;;;;;;;1.47;1.33;;;;;;;14.64;73.49;95163.09;5022990;28;20180;-85
2022/04/28 08:44:00;;;;;;;3.73;2.03;;;;;;;14.79;74.61;95167.16;5026768;28;20641;-81
2022/04/28 08:49:14;;;;;;;6.90;4.10;;;;;;;15.09;73.29;95146.63;5020713;28;20171;-83
2022/04/28 08:51:41;;;;;;;5.43;3.50;;;;;;;15.43;71.38;95167.00;5027912;28;20678;-81
2022/04/28 08:54:09;;;;;;;7.50;3.30;;;;;;;15.57;71.62;95164.16;5020333;28;20207;-82
2022/04/28 08:56:35;;;;;;;4.03;2.07;;;;;;;15.53;69.60;95157.66;5015513;28;20703;-82
2022/04/28 08:59:01;;;;;;;4.33;1.87;;;;;;;15.66;69.96;95176.81;5018824;28;20211;-82
2022/04/28 09:01:27;;;;;;;3.47;1.93;;;;;;;15.62;69.47;95174.88;5032258;28;20231;-85
2022/04/28 09:03:57;;;;;;;3.20;2.03;;;;;;;15.51;70.35;95159.72;5025914;28;20165;-84
2022/04/28 09:06:28;;;;;;;3.40;2.30;;;;;;;15.44;70.86;95165.16;5035447;28;20673;-82
2022/04/28 09:08:55;;;;;;;3.87;2.13;;;;;;;15.40;70.47;95171.97;5003746;28;20220;-85
2022/04/28 09:11:25;;;;;;;4.43;2.03;;;;;;;15.35;70.79;95164.72;5031112;28;20552;-86
2022/04/28 09:16:52;;;;;;;2.77;1.90;;;;;;;15.31;71.23;95174.16;5026463;28;20293;-85
2022/04/28 09:19:25;;;;;;;3.50;2.00;;;;;;;15.33;71.38;95171.28;5016463;28;20171;-86
2022/04/28 09:21:53;;;;;;;3.00;2.30;;;;;;;15.31;71.38;95165.41;5026159;28;20184;-85
2022/04/28 09:24:20;;;;;;;3.70;1.90;;;;;;;15.36;70.89;95173.50;5033772;28;20210;-85
2022/04/28 09:26:48;;;;;;;4.50;2.47;;;;;;;15.21;70.66;95162.56;5013786;28;20176;-85
2022/04/28 09:29:15;;;;;;;1.87;1.77;;;;;;;15.27;71.02;95177.53;5019760;28;20242;-86
2022/04/28 09:31:43;;;;;;;2.57;2.17;;;;;;;15.29;71.25;95168.31;5023105;28;20216;-85
2022/04/28 09:34:17;;;;;;;3.60;1.90;;;;;;;15.14;70.26;95156.53;5021890;28;20230;-86
2022/04/28 09:36:44;;;;;;;2.43;1.70;;;;;;;15.24;69.90;95172.69;5023573;28;20179;-85
2022/04/28 09:42:29;;;;;;;10.77;2.43;;;;;;;15.06;71.05;95155.03;5016845;28;20179;-85
2022/04/28 09:44:51;;;;;;;4.80;2.70;;;;;;;15.31;71.42;95158.25;5029590;28;20241;-86
2022/04/28 09:47:21;;;;;;;6.80;2.30;;;;;;;15.39;70.35;95157.91;5026669;28;20283;-86
2022/04/28 09:49:55;;;;;;;3.13;2.20;;;;;;;15.48;69.70;95172.41;5033515;28;20649;-86
2022/04/28 09:52:24;;;;;;;2.17;1.90;;;;;;;15.49;69.02;95171.38;5008426;28;20187;-85
2022/04/28 09:54:51;;;;;;;4.37;2.20;;;;;;;15.40;70.13;95137.47;5011822;28;20567;-85
2022/04/28 09:57:18;;;;;;;3.90;2.50;;;;;;;15.61;69.11;95170.59;5017380;28;20271;-85
2022/04/28 09:59:45;;;;;;;5.00;2.30;;;;;;;15.59;68.86;95167.34;5029676;28;20180;-85
2022/04/28 10:02:16;;;;;;;6.45;2.60;;;;;;;15.46;69.12;95141.88;5030872;28;20570;-85
2022/04/28 10:04:42;;;;;;;3.53;2.80;;;;;;;15.71;68.50;95170.81;5019328;28;20176;-85
2022/04/28 10:07:09;;;;;;;2.40;2.20;;;;;;;15.76;68.02;95170.91;5028280;28;20176;-86
2022/04/28 10:09:36;;;;;;;3.67;2.37;;;;;;;15.51;68.01;95130.53;5025798;28;20302;-85
2022/04/28 10:12:05;;;;;;;9.13;2.47;;;;;;;15.62;68.05;95154.44;5016017;28;20173;-86
2022/04/28 10:14:33;;;;;;;5.00;3.37;;;;;;;15.61;68.84;95144.06;5017196;28;20207;-86
2022/04/28 10:17:01;;;;;;;10.93;5.77;;;;;;;15.42;68.46;95120.28;5019131;28;20180;-85
2022/04/28 10:19:34;;;;;;;7.10;4.70;;;;;;;15.73;68.26;95163.44;5029079;28;20202;-85
2022/04/28 10:22:04;;;;;;;5.65;3.65;;;;;;;15.74;68.67;95165.03;5018346;28;20183;-85
2022/04/28 10:32:53;;;;;;;5.57;3.03;;;;;;;15.51;68.58;95125.25;5031501;28;20705;-85
2022/04/28 10:35:33;;;;;;;6.33;2.57;;;;;;;15.73;68.62;95158.13;5019349;28;20263;-86
2022/04/28 10:38:15;;;;;;;3.33;2.37;;;;;;;15.80;67.95;95156.94;5030742;28;20229;-86
2022/04/28 10:41:16;;;;;;;2.90;2.33;;;;;;;15.83;68.30;95145.00;5030633;28;20180;-85
2022/04/28 10:43:43;;;;;;;3.97;2.72;;;;;;;15.64;67.80;95125.03;5006129;28;20642;-85
2022/04/28 10:46:08;;;;;;;5.30;3.47;;;;;;;15.86;69.25;95155.19;5028926;28;20180;-86
2022/04/28 10:48:38;;;;;;;4.57;3.47;;;;;;;15.95;68.43;95159.06;5013924;28;20194;-86
2022/04/28 10:51:17;;;;;;;3.33;2.60;;;;;;;16.03;68.09;95158.69;5024396;28;20263;-86
2022/04/28 10:54:11;;;;;;;12.43;3.03;;;;;;;16.13;67.79;95156.22;5019653;28;20204;-86
2022/04/28 10:56:39;;;;;;;5.13;2.90;;;;;;;16.11;66.08;95158.31;5003548;28;20188;-86
2022/04/28 10:59:32;;;;;;;8.60;2.97;;;;;;;16.08;68.41;95155.34;5010154;28;20176;-86
2022/04/28 11:02:19;;;;;;;7.13;3.30;;;;;;;16.11;67.12;95157.50;5007110;28;20267;-85
2022/04/28 11:04:52;;;;;;;4.87;3.10;;;;;;;16.10;67.90;95151.38;5004997;28;20688;-86
2022/04/28 11:07:21;;;;;;;6.15;3.58;;;;;;;16.21;67.39;95152.38;5018416;28;20219;-86
2022/04/28 11:09:58;;;;;;;5.22;3.08;;;;;;;16.30;66.91;95155.47;5022987;28;20239;-86
2022/04/28 11:12:32;;;;;;;3.70;2.65;;;;;;;15.98;66.16;95110.00;5017907;28;20216;-86
2022/04/28 11:15:02;;;;;;;3.63;2.75;;;;;;;16.26;66.48;95141.84;5012826;28;20168;-86
2022/04/28 11:17:30;;;;;;;3.42;3.03;;;;;;;16.40;67.62;95145.81;5016788;28;20180;-86
2022/04/28 11:20:00;;;;;;;7.50;3.33;;;;;;;16.60;67.30;95148.03;5000200;28;20198;-86
2022/04/28 11:22:28;;;;;;;4.20;3.22;;;;;;;16.45;65.81;95124.63;5000092;28;20188;-86
2022/04/28 11:24:56;;;;;;;4.63;3.47;;;;;;;16.61;64.73;95149.66;5013230;28;20188;-85
2022/04/28 11:27:24;;;;;;;7.13;4.03;;;;;;;16.53;65.15;95134.88;5020774;28;20176;-86
2022/04/28 11:29:51;;;;;;;4.63;3.33;;;;;;;16.73;64.82;95152.25;5015929;28;20175;-85
2022/04/28 11:32:17;;;;;;;4.25;3.05;;;;;;;16.73;64.31;95153.03;5016632;28;20215;-86
2022/04/28 11:34:44;;;;;;;5.05;3.60;;;;;;;16.68;64.46;95139.69;5014345;28;20250;-86
2022/04/28 11:37:18;;;;;;;5.95;3.28;;;;;;;16.72;64.18;95148.78;5023134;28;20168;-85
2022/04/28 11:39:48;;;;;;;5.45;3.08;;;;;;;16.79;64.58;95157.38;5022056;28;20553;-86
2022/04/28 11:42:18;;;;;;;9.05;4.03;;;;;;;16.64;64.26;95124.44;5017943;28;20160;-86
2022/04/28 11:44:45;;;;;;;7.70;3.75;;;;;;;16.84;64.25;95146.03;4997826;28;20255;-84
2022/04/28 11:47:10;;;;;;;7.65;4.03;;;;;;;16.79;63.73;95146.75;5024787;28;20207;-86
2022/04/28 11:49:39;;;;;;;5.85;3.40;;;;;;;16.63;64.70;95104.22;5027182;28;20196;-83
2022/04/28 11:52:24;;;;;;;4.13;3.25;;;;;;;16.78;63.29;95153.13;5026972;28;20175;-84
2022/04/28 11:55:11;;;;;;;6.90;3.13;;;;;;;16.70;64.15;95137.56;5025540;28;20374;-83
2022/04/28 11:57:39;;;;;;;6.18;3.95;;;;;;;16.62;64.38;95113.25;5013479;28;20177;-83
2022/04/28 12:00:11;;;;;;;5.85;3.75;;;;;;;16.83;63.62;95136.44;5015271;28;20176;-83
2022/04/28 12:02:38;;;;;;;6.22;2.95;;;;;;;16.48;64.53;95086.16;5004154;28;20180;-83
2022/04/28 12:05:25;;;;;;;6.00;3.27;;;;;;;16.69;63.97;95127.19;5030536;28;20175;-83
2022/04/28 12:07:52;;;;;;;5.18;3.30;;;;;;;16.55;64.01;95090.25;5033313;28;20230;-83